KMTW/MTW METAR and TAF weather

Enter ICAO airport designator
Station Type Date Time Source
KMTW METAR 2020/01/22 17:56 UTC NOAA

KMTW 221756Z AUTO 21010KT 10SM CLR 01/M05 A3007 RMK AO2 SLP193 T00111050 10017 21033 58004 FZRANO


Station Type Date Time Source
KMTW Decoded METAR 2020/01/22 17:56 UTC NOAA

Manitowoc, Manitowoc County Airport, WI, United States (KMTW) 44-08N 087-41W
Jan 22, 2020 - 12:56 PM EST / 2020.01.22 1756 UTC
Wind: from the SSW (210 degrees) at 12 MPH (10 KT):0
Visibility: 10 mile(s):0
Sky conditions: clear
Temperature: 34.0 F (1.1 C)
Windchill: 24 F (-4 C):1
Dew Point: 23.0 F (-5.0 C)
Relative Humidity: 63%
Pressure (altimeter): 30.07 in. Hg (1018 hPa)
Pressure tendency: 0.01 inches (0.4 hPa) lower than three hours ago
ob: KMTW 221756Z AUTO 21010KT 10SM CLR 01/M05 A3007 RMK AO2 SLP193 T00111050 10017 21033 58004 FZRANO
cycle: 18

Station Type Date Time Source
KMTW TAF 2020/01/22 18:42 UTC NOAA

TAF KMTW 221739Z 2218/2318 21012G20KT P6SM OVC250
FM222300 19008G18KT P6SM OVC070
FM230300 20008G16KT P6SM -SN OVC040
FM230700 19006KT 3SM -SN BR OVC015
FM231000 21009KT 2SM -SN BR OVC008

Example: see airport list